VIR6W MDPC-EGCC
Flight info
| Callsign | VIR6W |
|---|---|
| Flight time | N/A |
| Altitude | 35000 |
| Route | CHUMA2T CHUMA Y315 KEEKA/M085F350 DCT SIFEN/M085F370 DCT 34N055W 38N050W 45N040W/M085F390 49N030W 52N020W DCT MALOT/N0484F390 DCT GISTI DCT ERABI DCT DAP DCT BOFUM Q37 MALUD |
| Aircraft | A35K/H-SDE2E3GHIJ3J4J5LM1ORWXY/LB1D1 |
Departure
| Time | 2026-05-06 12:56 |
|---|---|
| Airport | Punta Cana International Airport (MDPC) |
Arrival
| Time | N/A |
|---|---|
| Airport | Manchester Airport (EGCC) |
| Time | Latitude | Longitude | Altitude | Speed | Heading |
|---|---|---|---|---|---|
| 2026-05-06 12:15 | 18.56422 | -68.36156 | 56 ft | 0 kts | 176° |
| 2026-05-06 12:40 | 18.56427 | -68.36154 | 57 ft | 4 kts | 163° |
| 2026-05-06 12:41 | 18.56454 | -68.36159 | 54 ft | 4 kts | 174° |
| 2026-05-06 12:41 | 18.56478 | -68.36161 | 49 ft | 4 kts | 191° |
| 2026-05-06 12:41 | 18.56492 | -68.36150 | 49 ft | 4 kts | 271° |
| 2026-05-06 12:41 | 18.56490 | -68.36122 | 50 ft | 4 kts | 268° |
| 2026-05-06 12:42 | 18.56491 | -68.36111 | 50 ft | 1 kts | 263° |
| 2026-05-06 12:46 | 18.56490 | -68.36113 | 49 ft | 1 kts | 263° |
| 2026-05-06 12:47 | 18.56489 | -68.36123 | 50 ft | 2 kts | 263° |
| 2026-05-06 12:47 | 18.56486 | -68.36152 | 49 ft | 6 kts | 263° |
| 2026-05-06 12:47 | 18.56481 | -68.36207 | 53 ft | 9 kts | 265° |
| 2026-05-06 12:47 | 18.56475 | -68.36283 | 50 ft | 11 kts | 266° |
| 2026-05-06 12:48 | 18.56469 | -68.36378 | 54 ft | 14 kts | 266° |
| 2026-05-06 12:48 | 18.56462 | -68.36479 | 51 ft | 12 kts | 263° |
| 2026-05-06 12:48 | 18.56458 | -68.36555 | 52 ft | 11 kts | 278° |
| 2026-05-06 12:48 | 18.56495 | -68.36634 | 49 ft | 13 kts | 305° |
| 2026-05-06 12:49 | 18.56529 | -68.36733 | 52 ft | 16 kts | 270° |
| 2026-05-06 12:49 | 18.56518 | -68.36859 | 49 ft | 19 kts | 264° |
| 2026-05-06 12:49 | 18.56510 | -68.36955 | 52 ft | 20 kts | 265° |
| 2026-05-06 12:49 | 18.56497 | -68.37112 | 53 ft | 23 kts | 265° |
| 2026-05-06 12:50 | 18.56481 | -68.37290 | 55 ft | 25 kts | 264° |
| 2026-05-06 12:50 | 18.56463 | -68.37484 | 50 ft | 28 kts | 264° |
| 2026-05-06 12:50 | 18.56452 | -68.37615 | 52 ft | 14 kts | 265° |
| 2026-05-06 12:50 | 18.56444 | -68.37708 | 50 ft | 10 kts | 265° |
| 2026-05-06 12:51 | 18.56473 | -68.37777 | 50 ft | 11 kts | 332° |
| 2026-05-06 12:51 | 18.56563 | -68.37791 | 48 ft | 15 kts | 356° |
| 2026-05-06 12:51 | 18.56660 | -68.37803 | 51 ft | 12 kts | 339° |
| 2026-05-06 12:51 | 18.56712 | -68.37869 | 48 ft | 12 kts | 293° |
| 2026-05-06 12:52 | 18.56749 | -68.37961 | 49 ft | 15 kts | 293° |
| 2026-05-06 12:52 | 18.56794 | -68.38067 | 50 ft | 17 kts | 295° |
| 2026-05-06 12:52 | 18.56846 | -68.38183 | 51 ft | 17 kts | 295° |
| 2026-05-06 12:52 | 18.56895 | -68.38245 | 53 ft | 7 kts | 329° |
| 2026-05-06 12:53 | 18.56904 | -68.38249 | 54 ft | 0 kts | 333° |
| 2026-05-06 12:54 | 18.56905 | -68.38250 | 59 ft | 1 kts | 333° |
| 2026-05-06 12:54 | 18.56926 | -68.38261 | 56 ft | 5 kts | 333° |
| 2026-05-06 12:54 | 18.56964 | -68.38276 | 55 ft | 7 kts | 342° |
| 2026-05-06 12:55 | 18.57020 | -68.38284 | 55 ft | 9 kts | 12° |
| 2026-05-06 12:55 | 18.57052 | -68.38233 | 53 ft | 10 kts | 72° |
| 2026-05-06 12:55 | 18.57055 | -68.38221 | 57 ft | 0 kts | 73° |
| 2026-05-06 12:55 | 18.57110 | -68.38024 | 52 ft | 66 kts | 73° |
| 2026-05-06 12:56 | 18.57311 | -68.37310 | 53 ft | 134 kts | 73° |
| 2026-05-06 12:56 | 18.57644 | -68.36188 | 260 ft | 173 kts | 71° |
| 2026-05-06 12:56 | 18.58051 | -68.35036 | 1118 ft | 163 kts | 73° |
| 2026-05-06 12:56 | 18.58390 | -68.33846 | 1700 ft | 181 kts | 75° |
| 2026-05-06 12:57 | 18.58770 | -68.32453 | 1963 ft | 214 kts | 72° |
| 2026-05-06 12:57 | 18.59605 | -68.31042 | 2333 ft | 245 kts | 40° |
| 2026-05-06 12:57 | 18.61259 | -68.30440 | 2965 ft | 265 kts | 0° |
| 2026-05-06 12:57 | 18.63107 | -68.30736 | 3783 ft | 272 kts | 348° |
| 2026-05-06 12:58 | 18.64969 | -68.31156 | 4555 ft | 274 kts | 349° |
| 2026-05-06 12:58 | 18.66849 | -68.31524 | 5289 ft | 276 kts | 351° |
| 2026-05-06 12:58 | 18.68755 | -68.31851 | 5786 ft | 279 kts | 351° |
| 2026-05-06 12:58 | 18.70690 | -68.32155 | 5982 ft | 283 kts | 352° |
| 2026-05-06 12:59 | 18.72639 | -68.32446 | 6002 ft | 283 kts | 352° |
| 2026-05-06 12:59 | 18.74596 | -68.32728 | 6002 ft | 284 kts | 352° |
| 2026-05-06 12:59 | 18.76556 | -68.33005 | 6005 ft | 284 kts | 352° |
| 2026-05-06 12:59 | 18.78519 | -68.33281 | 6004 ft | 285 kts | 352° |
| 2026-05-06 13:00 | 18.80489 | -68.33556 | 6076 ft | 285 kts | 353° |
| 2026-05-06 13:00 | 18.82468 | -68.33831 | 6537 ft | 289 kts | 352° |
| 2026-05-06 13:00 | 18.84467 | -68.34109 | 7398 ft | 289 kts | 351° |
| 2026-05-06 13:00 | 18.86473 | -68.34390 | 8237 ft | 292 kts | 351° |
| 2026-05-06 13:01 | 18.88510 | -68.34676 | 9047 ft | 297 kts | 351° |
| 2026-05-06 13:01 | 18.90567 | -68.34963 | 9942 ft | 300 kts | 350° |
| 2026-05-06 13:01 | 18.92661 | -68.35259 | 10549 ft | 313 kts | 350° |
| 2026-05-06 13:01 | 18.94896 | -68.35580 | 10865 ft | 335 kts | 350° |
| 2026-05-06 13:02 | 18.97273 | -68.35922 | 11178 ft | 354 kts | 350° |
| 2026-05-06 13:02 | 18.99780 | -68.36276 | 11453 ft | 372 kts | 350° |
| 2026-05-06 13:02 | 19.02381 | -68.36635 | 11920 ft | 381 kts | 351° |
| 2026-05-06 13:02 | 19.04987 | -68.36990 | 12576 ft | 384 kts | 351° |
| 2026-05-06 13:03 | 19.07658 | -68.37358 | 13227 ft | 388 kts | 350° |
| 2026-05-06 13:03 | 19.10340 | -68.37731 | 13881 ft | 390 kts | 350° |
| 2026-05-06 13:03 | 19.13038 | -68.38108 | 14446 ft | 393 kts | 350° |
| 2026-05-06 13:03 | 19.15768 | -68.38443 | 15001 ft | 397 kts | 353° |
| 2026-05-06 13:04 | 19.18545 | -68.38398 | 15574 ft | 401 kts | 4° |
| 2026-05-06 13:04 | 19.21282 | -68.37766 | 16155 ft | 406 kts | 16° |
| 2026-05-06 13:04 | 19.23868 | -68.36533 | 16724 ft | 411 kts | 28° |
| 2026-05-06 13:04 | 19.26182 | -68.34737 | 17281 ft | 416 kts | 40° |
| 2026-05-06 13:05 | 19.28277 | -68.32597 | 17879 ft | 420 kts | 43° |
| 2026-05-06 13:05 | 19.30293 | -68.30337 | 18424 ft | 425 kts | 45° |
| 2026-05-06 13:05 | 19.32275 | -68.28001 | 18935 ft | 428 kts | 46° |
| 2026-05-06 13:05 | 19.34246 | -68.25626 | 19495 ft | 430 kts | 46° |
| 2026-05-06 13:06 | 19.36227 | -68.23234 | 20059 ft | 432 kts | 46° |
| 2026-05-06 13:06 | 19.38220 | -68.20838 | 20606 ft | 435 kts | 45° |
| 2026-05-06 13:06 | 19.40231 | -68.18436 | 21176 ft | 437 kts | 45° |
| 2026-05-06 13:06 | 19.42259 | -68.16024 | 21737 ft | 439 kts | 45° |
| 2026-05-06 13:07 | 19.44301 | -68.13606 | 22223 ft | 443 kts | 45° |
| 2026-05-06 13:07 | 19.46370 | -68.11159 | 22686 ft | 447 kts | 45° |
| 2026-05-06 13:07 | 19.48448 | -68.08699 | 23231 ft | 449 kts | 45° |
| 2026-05-06 13:07 | 19.50538 | -68.06225 | 23750 ft | 452 kts | 45° |
| 2026-05-06 13:08 | 19.52641 | -68.03733 | 24145 ft | 455 kts | 45° |
| 2026-05-06 13:08 | 19.54760 | -68.01222 | 24550 ft | 459 kts | 45° |
| 2026-05-06 13:08 | 19.56898 | -67.98685 | 24989 ft | 463 kts | 45° |
| 2026-05-06 13:08 | 19.59048 | -67.96132 | 25430 ft | 466 kts | 44° |
| 2026-05-06 13:09 | 19.61215 | -67.93559 | 25909 ft | 470 kts | 44° |
| 2026-05-06 13:09 | 19.63399 | -67.90963 | 26378 ft | 473 kts | 44° |
| 2026-05-06 13:09 | 19.65598 | -67.88351 | 26864 ft | 477 kts | 44° |
| 2026-05-06 13:09 | 19.67815 | -67.85715 | 27316 ft | 480 kts | 44° |
| 2026-05-06 13:10 | 19.70050 | -67.83056 | 27787 ft | 484 kts | 44° |
| 2026-05-06 13:10 | 19.72302 | -67.80378 | 28200 ft | 489 kts | 44° |
| 2026-05-06 13:10 | 19.74577 | -67.77670 | 28645 ft | 493 kts | 44° |
| 2026-05-06 13:10 | 19.76864 | -67.74944 | 29098 ft | 496 kts | 44° |
| 2026-05-06 13:11 | 19.79168 | -67.72198 | 29534 ft | 500 kts | 44° |
| 2026-05-06 13:11 | 19.81487 | -67.69433 | 29955 ft | 503 kts | 44° |
| 2026-05-06 13:11 | 19.83823 | -67.66644 | 30342 ft | 506 kts | 44° |
| 2026-05-06 13:11 | 19.86168 | -67.63842 | 30681 ft | 509 kts | 44° |
| 2026-05-06 13:12 | 19.88531 | -67.61016 | 31018 ft | 512 kts | 44° |
| 2026-05-06 13:12 | 19.90902 | -67.58181 | 31346 ft | 515 kts | 44° |
| 2026-05-06 13:12 | 19.93287 | -67.55329 | 31713 ft | 516 kts | 44° |
| 2026-05-06 13:12 | 19.95669 | -67.52479 | 32218 ft | 514 kts | 44° |
| 2026-05-06 13:13 | 19.98040 | -67.49643 | 32733 ft | 512 kts | 43° |
| 2026-05-06 13:13 | 20.00401 | -67.46821 | 33167 ft | 512 kts | 43° |
| 2026-05-06 13:13 | 20.02739 | -67.44028 | 33595 ft | 511 kts | 43° |
| 2026-05-06 13:13 | 20.05128 | -67.41170 | 34034 ft | 510 kts | 43° |
| 2026-05-06 13:14 | 20.07485 | -67.38346 | 34402 ft | 510 kts | 43° |
| 2026-05-06 13:14 | 20.09839 | -67.35525 | 34760 ft | 509 kts | 43° |
| 2026-05-06 13:14 | 20.12187 | -67.32710 | 35055 ft | 510 kts | 43° |
| 2026-05-06 13:15 | 20.16874 | -67.27086 | 35142 ft | 511 kts | 43° |
| 2026-05-06 13:15 | 20.21594 | -67.21406 | 35141 ft | 511 kts | 43° |
| 2026-05-06 13:16 | 20.26313 | -67.15722 | 35141 ft | 512 kts | 43° |
| 2026-05-06 13:16 | 20.31029 | -67.10034 | 35140 ft | 512 kts | 43° |
| 2026-05-06 13:17 | 20.35745 | -67.04342 | 35141 ft | 512 kts | 43° |
| 2026-05-06 13:17 | 20.40429 | -66.98684 | 35140 ft | 512 kts | 43° |
| 2026-05-06 13:18 | 20.45141 | -66.92984 | 35144 ft | 512 kts | 43° |
| 2026-05-06 13:18 | 20.49855 | -66.87275 | 35143 ft | 512 kts | 44° |
| 2026-05-06 13:19 | 20.54561 | -66.81572 | 35144 ft | 512 kts | 44° |
| 2026-05-06 13:19 | 20.59268 | -66.75862 | 35144 ft | 512 kts | 44° |
| 2026-05-06 13:20 | 20.63975 | -66.70148 | 35143 ft | 512 kts | 44° |
| 2026-05-06 13:20 | 20.68678 | -66.64431 | 35143 ft | 512 kts | 44° |
| 2026-05-06 13:21 | 20.73379 | -66.58712 | 35149 ft | 512 kts | 44° |
| 2026-05-06 13:21 | 20.78085 | -66.52982 | 35150 ft | 513 kts | 44° |
| 2026-05-06 13:22 | 20.82794 | -66.47240 | 35150 ft | 513 kts | 44° |
| 2026-05-06 13:22 | 20.87494 | -66.41504 | 35152 ft | 513 kts | 44° |
| 2026-05-06 13:23 | 20.92192 | -66.35763 | 35150 ft | 513 kts | 44° |
| 2026-05-06 13:23 | 20.96859 | -66.30056 | 35151 ft | 513 kts | 44° |
| 2026-05-06 13:24 | 21.01555 | -66.24308 | 35150 ft | 513 kts | 44° |
| 2026-05-06 13:24 | 21.06251 | -66.18554 | 35151 ft | 514 kts | 44° |
| 2026-05-06 13:25 | 21.10953 | -66.12785 | 35153 ft | 514 kts | 44° |
| 2026-05-06 13:25 | 21.15650 | -66.07017 | 35154 ft | 514 kts | 44° |
| 2026-05-06 13:26 | 21.20346 | -66.01243 | 35155 ft | 514 kts | 44° |
| 2026-05-06 13:26 | 21.25042 | -65.95465 | 35154 ft | 514 kts | 44° |
| 2026-05-06 13:27 | 21.29734 | -65.89685 | 35166 ft | 514 kts | 44° |
| 2026-05-06 13:27 | 21.34527 | -65.84010 | 35163 ft | 510 kts | 38° |
| 2026-05-06 13:28 | 21.39812 | -65.78938 | 35152 ft | 510 kts | 36° |
| 2026-05-06 13:28 | 21.45196 | -65.73970 | 35156 ft | 510 kts | 36° |
| 2026-05-06 13:29 | 21.50588 | -65.69011 | 35158 ft | 511 kts | 36° |
| 2026-05-06 13:29 | 21.55937 | -65.64067 | 35160 ft | 511 kts | 36° |
| 2026-05-06 13:30 | 21.61354 | -65.59045 | 35158 ft | 511 kts | 36° |
| 2026-05-06 13:30 | 21.66704 | -65.54077 | 35159 ft | 512 kts | 36° |
| 2026-05-06 13:31 | 21.72089 | -65.49071 | 35159 ft | 512 kts | 36° |
| 2026-05-06 13:31 | 21.77476 | -65.44058 | 35159 ft | 512 kts | 36° |
| 2026-05-06 13:32 | 21.82861 | -65.39043 | 35161 ft | 512 kts | 36° |
| 2026-05-06 13:32 | 21.88248 | -65.34020 | 35160 ft | 512 kts | 36° |
| 2026-05-06 13:33 | 21.93638 | -65.28990 | 35165 ft | 513 kts | 36° |
| 2026-05-06 13:33 | 21.99039 | -65.23946 | 35163 ft | 514 kts | 36° |
| 2026-05-06 13:34 | 22.03530 | -65.19746 | 35166 ft | 514 kts | 36° |
| 2026-05-06 13:34 | 22.08933 | -65.14688 | 35170 ft | 515 kts | 36° |
| 2026-05-06 13:35 | 22.14305 | -65.09553 | 35166 ft | 516 kts | 38° |
| 2026-05-06 13:35 | 22.19566 | -65.04272 | 35164 ft | 516 kts | 38° |
| 2026-05-06 13:36 | 22.24820 | -64.98986 | 35163 ft | 516 kts | 38° |
| 2026-05-06 13:36 | 22.30101 | -64.93712 | 35169 ft | 517 kts | 38° |
| 2026-05-06 13:37 | 22.35393 | -64.88442 | 35171 ft | 518 kts | 38° |
| 2026-05-06 13:37 | 22.40706 | -64.83148 | 35167 ft | 519 kts | 38° |
| 2026-05-06 13:38 | 22.45969 | -64.77895 | 35168 ft | 519 kts | 38° |
| 2026-05-06 13:38 | 22.51269 | -64.72600 | 35170 ft | 519 kts | 38° |
| 2026-05-06 13:39 | 22.56567 | -64.67300 | 35173 ft | 519 kts | 38° |
| 2026-05-06 13:39 | 22.61867 | -64.61992 | 35170 ft | 519 kts | 38° |
| 2026-05-06 13:40 | 22.67164 | -64.56682 | 35170 ft | 519 kts | 38° |
| 2026-05-06 13:40 | 22.72460 | -64.51366 | 35169 ft | 519 kts | 38° |
| 2026-05-06 13:41 | 22.77748 | -64.46053 | 35173 ft | 519 kts | 38° |
| 2026-05-06 13:41 | 22.83038 | -64.40732 | 35185 ft | 519 kts | 38° |
| 2026-05-06 13:42 | 22.88331 | -64.35402 | 35168 ft | 519 kts | 38° |
| 2026-05-06 13:42 | 22.93598 | -64.30094 | 35169 ft | 520 kts | 38° |
| 2026-05-06 13:43 | 22.98894 | -64.24750 | 35171 ft | 520 kts | 38° |
| 2026-05-06 13:43 | 23.04186 | -64.19402 | 35172 ft | 520 kts | 38° |
| 2026-05-06 13:44 | 23.09485 | -64.14042 | 35177 ft | 520 kts | 38° |
| 2026-05-06 13:44 | 23.14779 | -64.08682 | 35176 ft | 520 kts | 38° |
| 2026-05-06 13:45 | 23.20068 | -64.03320 | 35178 ft | 520 kts | 38° |
| 2026-05-06 13:45 | 23.28016 | -63.95251 | 35177 ft | 521 kts | 38° |
| 2026-05-06 13:46 | 23.33312 | -63.89867 | 35196 ft | 521 kts | 38° |
| 2026-05-06 13:46 | 23.38598 | -63.84485 | 35181 ft | 520 kts | 38° |
| 2026-05-06 13:47 | 23.43846 | -63.79137 | 35183 ft | 520 kts | 38° |
| 2026-05-06 13:47 | 23.49128 | -63.73750 | 35178 ft | 520 kts | 38° |
| 2026-05-06 13:48 | 23.54407 | -63.68358 | 35184 ft | 520 kts | 38° |
| 2026-05-06 13:48 | 23.59689 | -63.62958 | 35185 ft | 520 kts | 38° |
| 2026-05-06 13:49 | 23.64973 | -63.57548 | 35183 ft | 521 kts | 38° |
| 2026-05-06 13:49 | 23.70253 | -63.52136 | 35182 ft | 521 kts | 38° |
| 2026-05-06 13:50 | 23.75527 | -63.46725 | 35184 ft | 521 kts | 38° |
| 2026-05-06 13:50 | 23.80810 | -63.41298 | 35201 ft | 521 kts | 38° |
| 2026-05-06 13:51 | 23.86094 | -63.35864 | 35182 ft | 522 kts | 38° |
| 2026-05-06 13:51 | 23.91381 | -63.30419 | 35187 ft | 522 kts | 39° |
| 2026-05-06 13:52 | 23.96668 | -63.24968 | 35185 ft | 522 kts | 39° |
| 2026-05-06 13:52 | 24.01922 | -63.19546 | 35185 ft | 522 kts | 39° |
| 2026-05-06 13:53 | 24.07203 | -63.14088 | 35190 ft | 522 kts | 38° |
| 2026-05-06 13:53 | 24.12476 | -63.08633 | 35187 ft | 522 kts | 39° |
| 2026-05-06 13:54 | 24.17759 | -63.03162 | 35184 ft | 523 kts | 39° |
| 2026-05-06 13:54 | 24.23041 | -62.97683 | 35186 ft | 523 kts | 39° |
| 2026-05-06 13:55 | 24.28324 | -62.92198 | 35199 ft | 523 kts | 39° |
| 2026-05-06 13:55 | 24.33597 | -62.86714 | 35177 ft | 523 kts | 39° |
| 2026-05-06 13:56 | 24.38876 | -62.81220 | 35184 ft | 523 kts | 39° |
| 2026-05-06 13:56 | 24.44163 | -62.75714 | 35186 ft | 525 kts | 39° |
| 2026-05-06 13:57 | 24.49458 | -62.70189 | 35187 ft | 525 kts | 39° |
| 2026-05-06 13:57 | 24.54751 | -62.64658 | 35184 ft | 525 kts | 39° |
| 2026-05-06 13:58 | 24.60008 | -62.59159 | 35184 ft | 525 kts | 39° |
| 2026-05-06 13:58 | 24.65289 | -62.53628 | 35184 ft | 524 kts | 39° |
| 2026-05-06 13:59 | 24.70576 | -62.48087 | 35195 ft | 526 kts | 39° |
| 2026-05-06 13:59 | 24.75881 | -62.42519 | 35194 ft | 528 kts | 39° |
| 2026-05-06 14:00 | 24.81192 | -62.36936 | 35187 ft | 528 kts | 39° |
| 2026-05-06 14:00 | 24.86495 | -62.31354 | 35186 ft | 528 kts | 39° |
| 2026-05-06 14:01 | 24.91804 | -62.25760 | 35184 ft | 528 kts | 39° |
| 2026-05-06 14:01 | 24.97104 | -62.20169 | 35183 ft | 528 kts | 40° |
| 2026-05-06 14:02 | 25.02420 | -62.14555 | 35183 ft | 529 kts | 40° |
| 2026-05-06 14:02 | 25.07733 | -62.08935 | 35184 ft | 529 kts | 40° |
| 2026-05-06 14:03 | 25.13056 | -62.03296 | 35186 ft | 529 kts | 40° |
| 2026-05-06 14:03 | 25.18339 | -61.97694 | 35186 ft | 529 kts | 40° |
| 2026-05-06 14:04 | 25.23682 | -61.92022 | 35180 ft | 529 kts | 40° |
| 2026-05-06 14:04 | 25.28962 | -61.86411 | 35186 ft | 532 kts | 40° |
| 2026-05-06 14:05 | 25.34295 | -61.80735 | 35183 ft | 532 kts | 40° |
| 2026-05-06 14:05 | 25.39627 | -61.75051 | 35184 ft | 532 kts | 40° |
| 2026-05-06 14:06 | 25.44953 | -61.69366 | 35200 ft | 532 kts | 40° |
| 2026-05-06 14:06 | 25.50281 | -61.63671 | 35184 ft | 532 kts | 40° |
| 2026-05-06 14:07 | 25.55600 | -61.57980 | 35180 ft | 532 kts | 40° |
| 2026-05-06 14:07 | 25.60916 | -61.52286 | 35187 ft | 532 kts | 40° |
| 2026-05-06 14:08 | 25.66232 | -61.46583 | 35200 ft | 532 kts | 40° |
| 2026-05-06 14:08 | 25.71551 | -61.40870 | 35186 ft | 532 kts | 40° |
| 2026-05-06 14:09 | 25.76866 | -61.35153 | 35184 ft | 532 kts | 40° |
| 2026-05-06 14:09 | 25.82187 | -61.29423 | 35188 ft | 534 kts | 41° |
| 2026-05-06 14:10 | 25.87487 | -61.23708 | 35183 ft | 535 kts | 41° |
| 2026-05-06 14:10 | 25.92825 | -61.17943 | 35184 ft | 535 kts | 41° |
| 2026-05-06 14:11 | 25.98159 | -61.12175 | 35184 ft | 535 kts | 41° |
| 2026-05-06 14:11 | 26.03493 | -61.06399 | 35184 ft | 535 kts | 41° |
| 2026-05-06 14:12 | 26.08821 | -61.00623 | 35187 ft | 536 kts | 41° |
| 2026-05-06 14:12 | 26.14168 | -60.94820 | 35184 ft | 537 kts | 41° |
| 2026-05-06 14:13 | 26.19518 | -60.89003 | 35184 ft | 537 kts | 41° |
| 2026-05-06 14:13 | 26.24860 | -60.83187 | 35186 ft | 537 kts | 41° |
| 2026-05-06 14:14 | 26.30197 | -60.77369 | 35184 ft | 537 kts | 41° |
| 2026-05-06 14:14 | 26.35539 | -60.71539 | 35183 ft | 538 kts | 42° |
| 2026-05-06 14:15 | 26.40900 | -60.65680 | 35184 ft | 539 kts | 42° |
| 2026-05-06 14:15 | 26.46262 | -60.59811 | 35189 ft | 539 kts | 42° |
| 2026-05-06 14:16 | 26.51614 | -60.53943 | 35189 ft | 539 kts | 42° |
| 2026-05-06 14:16 | 26.56926 | -60.48114 | 35190 ft | 539 kts | 42° |
| 2026-05-06 14:17 | 26.62282 | -60.42226 | 35304 ft | 542 kts | 42° |
| 2026-05-06 14:17 | 26.64969 | -60.39268 | 35668 ft | 541 kts | 42° |
| 2026-05-06 14:17 | 26.67651 | -60.36314 | 36045 ft | 540 kts | 42° |
| 2026-05-06 14:18 | 26.70336 | -60.33354 | 36348 ft | 541 kts | 42° |
| 2026-05-06 14:18 | 26.73012 | -60.30400 | 36657 ft | 541 kts | 42° |
| 2026-05-06 14:18 | 26.75701 | -60.27461 | 36990 ft | 540 kts | 40° |
| 2026-05-06 14:18 | 26.77654 | -60.25650 | 37254 ft | 539 kts | 33° |
| 2026-05-06 14:19 | 26.81798 | -60.22599 | 37534 ft | 540 kts | 28° |
| 2026-05-06 14:19 | 26.83930 | -60.21164 | 37693 ft | 540 kts | 27° |
| 2026-05-06 14:19 | 26.87169 | -60.19046 | 37962 ft | 540 kts | 26° |
| 2026-05-06 14:19 | 26.90423 | -60.16939 | 38216 ft | 540 kts | 26° |
| 2026-05-06 14:20 | 26.93679 | -60.14819 | 38378 ft | 542 kts | 26° |
| 2026-05-06 14:20 | 26.96937 | -60.12672 | 38642 ft | 543 kts | 27° |
| 2026-05-06 14:20 | 27.00177 | -60.10516 | 38914 ft | 542 kts | 27° |
| 2026-05-06 14:20 | 27.03416 | -60.08346 | 39121 ft | 542 kts | 27° |
| 2026-05-06 14:21 | 27.09886 | -60.03997 | 39190 ft | 542 kts | 27° |
| 2026-05-06 14:21 | 27.16346 | -59.99645 | 39190 ft | 542 kts | 27° |